Time;durP1;ratioP1;P1;durP2;ratioP2;P2;SDS_P1;SDS_P2;PMS_P1;PMS_P2;Temp;Humidity;BMP_temperature;BMP_pressure;BME280_temperature;BME280_humidity;BME280_pressure;Samples;Min_cycle;Max_cycle;Signal;HPM_P1;HPM_P2
2023/06/07 00:00:08;;;;;;;14.20;9.77;;;20.80;79.60;;;;;;5037945;28;20180;-80
2023/06/07 00:02:34;;;;;;;14.50;9.90;;;20.70;85.00;;;;;;5028906;28;20253;-80
2023/06/07 00:04:59;;;;;;;14.47;9.33;;;20.70;90.10;;;;;;5035442;28;20470;-80
2023/06/07 00:07:25;;;;;;;13.40;9.90;;;20.70;92.10;;;;;;5035739;28;20331;-80
2023/06/07 00:09:51;;;;;;;17.70;10.77;;;20.60;94.80;;;;;;5038282;28;20198;-81
2023/06/07 00:12:16;;;;;;;18.73;10.77;;;20.60;98.30;;;;;;5036775;28;20439;-80
2023/06/07 00:14:43;;;;;;;17.93;10.83;;;20.60;99.90;;;;;;5036419;28;20678;-81
2023/06/07 00:17:09;;;;;;;20.60;11.20;;;20.60;99.90;;;;;;5024912;28;20211;-79
2023/06/07 00:19:35;;;;;;;14.10;8.97;;;20.60;99.90;;;;;;5035059;28;20442;-81
2023/06/07 00:22:02;;;;;;;14.33;10.73;;;20.50;99.90;;;;;;5037628;28;20491;-80
2023/06/07 00:24:27;;;;;;;15.07;9.43;;;20.50;99.90;;;;;;5037562;28;20186;-81
2023/06/07 00:26:53;;;;;;;15.87;11.07;;;20.40;99.90;;;;;;5037739;28;20470;-80
2023/06/07 00:29:18;;;;;;;16.20;10.37;;;20.40;99.90;;;;;;5036683;28;20189;-80
2023/06/07 00:31:44;;;;;;;15.13;9.70;;;20.40;99.90;;;;;;5034559;28;20192;-80
2023/06/07 00:34:10;;;;;;;14.70;8.80;;;20.30;99.90;;;;;;5037829;28;20190;-80
2023/06/07 00:36:35;;;;;;;13.90;8.83;;;20.30;99.90;;;;;;5030799;28;20306;-81
2023/06/07 00:39:05;;;;;;;15.33;9.77;;;20.20;99.90;;;;;;5038613;28;20201;-80
2023/06/07 00:41:30;;;;;;;14.00;10.00;;;20.10;99.90;;;;;;5035423;28;20270;-80
2023/06/07 00:43:56;;;;;;;23.40;11.27;;;20.10;99.90;;;;;;5037151;28;20482;-81
2023/06/07 00:46:24;;;;;;;15.97;10.23;;;20.00;99.90;;;;;;5032489;28;20193;-80
2023/06/07 00:48:51;;;;;;;13.40;9.60;;;19.90;99.90;;;;;;5038523;28;20239;-80
2023/06/07 00:51:17;;;;;;;19.47;9.53;;;19.80;99.90;;;;;;5035151;28;20455;-80
2023/06/07 00:53:47;;;;;;;13.70;9.70;;;19.70;99.90;;;;;;5037116;28;20443;-80
2023/06/07 00:56:12;;;;;;;19.80;9.57;;;19.60;99.90;;;;;;5035777;28;20582;-80
2023/06/07 00:58:39;;;;;;;14.20;10.27;;;19.60;99.90;;;;;;5037139;28;20498;-81
2023/06/07 01:01:05;;;;;;;14.60;9.67;;;19.60;99.90;;;;;;5037271;28;20188;-80
2023/06/07 01:03:34;;;;;;;15.60;9.00;;;19.60;99.90;;;;;;5035249;28;20433;-81
2023/06/07 01:06:02;;;;;;;16.30;10.13;;;19.50;99.90;;;;;;5037456;28;20809;-81
2023/06/07 01:08:29;;;;;;;14.53;9.43;;;19.50;99.90;;;;;;5033738;28;20466;-80
2023/06/07 01:10:56;;;;;;;19.90;9.30;;;19.50;99.90;;;;;;5037203;28;20451;-81
2023/06/07 01:13:22;;;;;;;12.50;10.73;;;19.50;99.90;;;;;;5036179;28;20441;-80
2023/06/07 01:15:49;;;;;;;15.90;9.13;;;19.40;99.90;;;;;;5034841;28;21021;-80
2023/06/07 01:18:15;;;;;;;14.80;9.13;;;19.30;99.90;;;;;;5036479;28;20563;-80
2023/06/07 01:20:48;;;;;;;18.70;9.67;;;19.10;99.90;;;;;;5039036;28;20443;-81
2023/06/07 01:23:14;;;;;;;14.13;8.53;;;19.10;99.90;;;;;;5034828;28;20445;-82
2023/06/07 01:25:39;;;;;;;13.87;8.37;;;19.10;99.90;;;;;;5033532;28;20446;-80
2023/06/07 01:28:06;;;;;;;10.13;8.67;;;19.00;99.90;;;;;;5037381;28;20468;-80
2023/06/07 01:30:32;;;;;;;12.27;8.50;;;19.00;99.90;;;;;;5036208;28;20190;-80
2023/06/07 01:33:01;;;;;;;12.23;8.47;;;19.00;99.90;;;;;;5036737;28;20438;-79
2023/06/07 01:35:27;;;;;;;13.27;9.20;;;18.90;99.90;;;;;;5035952;28;20984;-80
2023/06/07 01:37:54;;;;;;;15.53;10.00;;;18.90;99.90;;;;;;5036829;28;20476;-80
2023/06/07 01:40:20;;;;;;;15.83;9.60;;;18.80;99.90;;;;;;5038061;28;20503;-79
2023/06/07 01:42:47;;;;;;;14.00;9.50;;;18.80;99.90;;;;;;5035438;28;20990;-80
2023/06/07 01:45:13;;;;;;;13.93;9.13;;;18.70;99.90;;;;;;5034609;28;20437;-80
2023/06/07 01:47:39;;;;;;;13.67;9.20;;;18.70;99.90;;;;;;5034703;28;20470;-80
2023/06/07 01:50:05;;;;;;;14.57;9.17;;;18.60;99.90;;;;;;5034082;28;20467;-80
2023/06/07 01:52:31;;;;;;;23.67;9.70;;;18.50;99.90;;;;;;5035849;28;20461;-81
2023/06/07 01:54:57;;;;;;;15.60;9.73;;;18.40;99.90;;;;;;5039646;28;20467;-80
2023/06/07 01:57:26;;;;;;;15.03;9.90;;;18.40;99.90;;;;;;5038204;28;21002;-80
2023/06/07 02:00:01;;;;;;;14.40;9.43;;;18.50;99.90;;;;;;5039946;28;20444;-80
2023/06/07 02:02:32;;;;;;;17.27;10.30;;;18.40;99.90;;;;;;5039417;28;20439;-80
2023/06/07 02:05:03;;;;;;;18.53;9.20;;;18.40;99.90;;;;;;5038346;28;20437;-78
2023/06/07 02:07:32;;;;;;;18.30;8.57;;;18.40;99.90;;;;;;5038860;28;20460;-80
2023/06/07 02:10:00;;;;;;;18.37;8.90;;;18.40;99.90;;;;;;5040506;28;20436;-79
2023/06/07 02:12:27;;;;;;;12.00;10.20;;;18.40;99.90;;;;;;5041159;28;20440;-79
2023/06/07 02:14:53;;;;;;;19.03;8.70;;;18.40;99.90;;;;;;5036716;28;20476;-79
2023/06/07 02:17:19;;;;;;;12.43;8.87;;;18.40;99.90;;;;;;5039323;28;20479;-79
2023/06/07 02:19:46;;;;;;;16.80;9.03;;;18.40;99.90;;;;;;5039938;28;20276;-82
2023/06/07 02:22:13;;;;;;;12.57;9.10;;;18.30;99.90;;;;;;5037652;28;20428;-81
2023/06/07 02:24:40;;;;;;;12.43;8.50;;;18.30;99.90;;;;;;5034417;28;20496;-81
2023/06/07 02:27:07;;;;;;;13.80;8.97;;;18.30;99.90;;;;;;5039692;28;20460;-80
2023/06/07 02:29:33;;;;;;;18.90;9.23;;;18.30;99.90;;;;;;5038971;28;20431;-81
2023/06/07 02:32:00;;;;;;;16.13;8.10;;;18.30;99.90;;;;;;5033715;28;20500;-80
2023/06/07 02:34:26;;;;;;;15.97;9.27;;;18.20;99.90;;;;;;5039860;28;20221;-81
2023/06/07 02:36:52;;;;;;;14.63;8.60;;;18.20;99.90;;;;;;5038284;28;20479;-79
2023/06/07 02:39:18;;;;;;;13.90;8.60;;;18.20;99.90;;;;;;5038110;28;20443;-80
2023/06/07 02:41:44;;;;;;;14.57;8.77;;;18.20;99.90;;;;;;5040854;28;20431;-81
2023/06/07 02:44:09;;;;;;;14.67;8.90;;;18.20;99.90;;;;;;5041017;28;20256;-80
2023/06/07 02:46:35;;;;;;;14.07;9.53;;;18.10;99.90;;;;;;5039651;28;20691;-80
2023/06/07 02:49:00;;;;;;;12.13;8.90;;;18.10;99.90;;;;;;5039458;28;20206;-80
2023/06/07 02:51:26;;;;;;;15.90;9.00;;;18.10;99.90;;;;;;5040031;28;20182;-80
2023/06/07 02:53:53;;;;;;;11.00;8.70;;;18.00;1.00;;;;;;5039295;28;20193;-81
2023/06/07 02:56:18;;;;;;;15.03;9.80;;;18.00;1.00;;;;;;5039564;28;20265;-80
2023/06/07 02:58:44;;;;;;;15.00;9.97;;;18.00;1.00;;;;;;5040255;28;20499;-81
2023/06/07 03:01:10;;;;;;;16.70;10.33;;;18.00;1.00;;;;;;5037979;28;20747;-81
2023/06/07 03:03:36;;;;;;;16.70;10.70;;;18.00;1.00;;;;;;5036934;28;20207;-81
2023/06/07 03:06:07;;;;;;;16.80;9.60;;;18.00;1.00;;;;;;5033030;28;20578;-81
2023/06/07 03:08:33;;;;;;;15.07;8.80;;;18.00;1.00;;;;;;5038807;28;20474;-80
2023/06/07 03:10:59;;;;;;;16.37;10.53;;;18.00;1.00;;;;;;5037532;28;20446;-80
2023/06/07 03:13:24;;;;;;;19.23;9.10;;;18.00;1.00;;;;;;5039000;28;20436;-79
2023/06/07 03:15:50;;;;;;;14.63;10.07;;;18.00;1.00;;;;;;5039119;28;20232;-79
2023/06/07 03:18:15;;;;;;;18.07;9.33;;;18.00;1.00;;;;;;5035758;28;20617;-78
2023/06/07 03:20:42;;;;;;;19.43;10.60;;;18.00;1.00;;;;;;5035104;28;20196;-79
2023/06/07 03:23:08;;;;;;;13.10;9.40;;;18.00;1.00;;;;;;5034543;28;20181;-79
2023/06/07 03:25:35;;;;;;;18.40;9.67;;;18.00;1.00;;;;;;5035347;28;20478;-79
2023/06/07 03:28:00;;;;;;;16.23;8.70;;;18.00;1.00;;;;;;5036994;28;20212;-81
2023/06/07 03:30:26;;;;;;;17.60;9.60;;;18.00;1.00;;;;;;5035770;28;20457;-81
2023/06/07 03:32:52;;;;;;;12.60;9.73;;;17.90;1.00;;;;;;5039128;28;20197;-81
2023/06/07 03:35:18;;;;;;;17.00;9.70;;;17.90;1.00;;;;;;5037568;28;20214;-82
2023/06/07 03:37:43;;;;;;;11.00;8.90;;;17.90;1.00;;;;;;5036450;28;20220;-81
2023/06/07 03:40:10;;;;;;;22.03;10.30;;;17.90;1.00;;;;;;5037922;28;20502;-81
2023/06/07 03:42:35;;;;;;;21.80;9.80;;;17.80;1.00;;;;;;5038418;28;20713;-81
2023/06/07 03:45:01;;;;;;;21.83;10.50;;;17.80;1.00;;;;;;5037838;28;20451;-81
2023/06/07 03:47:27;;;;;;;15.20;8.33;;;17.80;1.00;;;;;;5031124;28;20197;-81
2023/06/07 03:49:53;;;;;;;14.53;8.80;;;17.80;1.00;;;;;;5038543;28;20888;-81
2023/06/07 03:52:19;;;;;;;16.60;9.57;;;17.80;1.00;;;;;;5038004;28;20460;-81
2023/06/07 03:54:44;;;;;;;24.13;10.30;;;17.80;1.00;;;;;;5035386;28;20196;-81
2023/06/07 03:57:10;;;;;;;17.13;9.77;;;17.80;1.00;;;;;;5036289;28;20221;-81
2023/06/07 03:59:36;;;;;;;14.23;9.93;;;17.90;1.00;;;;;;5037909;28;20237;-81
2023/06/07 04:02:03;;;;;;;13.23;8.93;;;17.90;1.00;;;;;;5037632;28;20288;-80
2023/06/07 04:04:32;;;;;;;12.97;9.17;;;17.90;1.00;;;;;;5031339;28;20200;-80
2023/06/07 04:06:58;;;;;;;11.70;8.67;;;17.90;1.00;;;;;;5034888;28;20459;-80
2023/06/07 04:09:24;;;;;;;14.27;9.17;;;17.90;1.00;;;;;;5037536;28;20435;-81
2023/06/07 04:11:50;;;;;;;13.27;9.30;;;17.90;1.00;;;;;;5034684;28;20463;-81
2023/06/07 04:14:16;;;;;;;18.77;9.10;;;17.90;1.00;;;;;;5036233;28;20188;-80
2023/06/07 04:16:42;;;;;;;18.77;8.97;;;18.00;1.00;;;;;;5032718;28;20703;-79
2023/06/07 04:19:07;;;;;;;14.33;10.07;;;18.00;1.00;;;;;;5034442;28;20587;-80
2023/06/07 04:21:33;;;;;;;13.17;8.87;;;18.00;1.00;;;;;;5038335;28;20433;-79
2023/06/07 04:23:58;;;;;;;16.93;8.43;;;18.00;1.00;;;;;;5033989;28;20245;-79
2023/06/07 04:26:24;;;;;;;10.60;8.33;;;18.00;1.00;;;;;;5037826;28;20238;-79
2023/06/07 04:28:49;;;;;;;13.37;9.53;;;18.10;1.00;;;;;;5033411;28;20200;-80
2023/06/07 04:31:15;;;;;;;14.80;8.53;;;18.10;1.00;;;;;;5035353;28;20273;-79
2023/06/07 04:33:42;;;;;;;12.53;8.97;;;18.10;1.00;;;;;;5037039;28;20190;-80
2023/06/07 04:36:08;;;;;;;17.23;9.33;;;18.20;1.00;;;;;;5049003;28;20488;-80
2023/06/07 04:38:34;;;;;;;21.00;10.30;;;18.20;1.00;;;;;;5037907;28;20466;-78
2023/06/07 04:41:05;;;;;;;16.87;9.17;;;18.30;1.00;;;;;;5033966;28;20909;-79
2023/06/07 04:43:35;;;;;;;12.50;8.50;;;18.30;1.00;;;;;;5038669;28;20186;-80
2023/06/07 04:46:01;;;;;;;15.97;9.37;;;18.30;1.00;;;;;;5037156;28;20452;-79
2023/06/07 04:48:26;;;;;;;15.10;9.97;;;18.30;1.00;;;;;;5035815;28;20495;-79
2023/06/07 04:50:54;;;;;;;16.93;9.50;;;18.40;99.90;;;;;;5036949;28;20185;-80
2023/06/07 04:53:20;;;;;;;14.90;9.10;;;18.40;99.90;;;;;;5039323;28;20209;-80
2023/06/07 04:55:50;;;;;;;20.03;11.03;;;18.40;99.90;;;;;;5037682;28;20489;-80
2023/06/07 04:58:16;;;;;;;15.27;9.27;;;18.50;99.90;;;;;;5035766;28;20456;-81
2023/06/07 05:00:43;;;;;;;14.83;9.47;;;18.50;99.90;;;;;;5037432;28;20490;-80
2023/06/07 05:03:09;;;;;;;12.13;9.27;;;18.50;99.90;;;;;;5037074;28;20445;-80
2023/06/07 05:05:35;;;;;;;15.80;8.70;;;18.50;99.90;;;;;;5028738;28;20941;-81
2023/06/07 05:08:01;;;;;;;15.70;8.83;;;18.60;99.90;;;;;;5037185;28;20462;-80
2023/06/07 05:10:27;;;;;;;11.63;8.80;;;18.60;99.90;;;;;;5036688;28;20433;-80
2023/06/07 05:12:53;;;;;;;17.10;10.00;;;18.60;99.90;;;;;;5036973;28;20497;-79
2023/06/07 05:15:18;;;;;;;15.33;8.30;;;18.70;99.90;;;;;;5033733;28;20845;-80
2023/06/07 05:17:48;;;;;;;12.53;9.10;;;18.80;99.90;;;;;;5037557;28;20205;-80
2023/06/07 05:20:16;;;;;;;17.00;9.10;;;18.80;99.90;;;;;;5037678;28;20243;-80
2023/06/07 05:22:43;;;;;;;18.10;9.37;;;18.80;99.90;;;;;;5035827;28;20535;-80
2023/06/07 05:25:10;;;;;;;21.50;9.60;;;18.80;99.90;;;;;;5037064;28;20523;-80
2023/06/07 05:27:37;;;;;;;12.80;8.57;;;18.80;99.90;;;;;;5036298;28;20449;-79
2023/06/07 05:30:04;;;;;;;16.67;8.63;;;18.80;99.90;;;;;;5038082;28;20439;-80
2023/06/07 05:32:30;;;;;;;17.40;8.93;;;18.80;99.90;;;;;;5040516;28;20431;-80
2023/06/07 05:34:59;;;;;;;17.93;9.83;;;18.90;99.90;;;;;;5040951;28;20528;-80
2023/06/07 05:37:25;;;;;;;12.40;9.40;;;18.90;99.90;;;;;;5033764;28;20460;-80
2023/06/07 05:39:51;;;;;;;13.53;10.10;;;18.80;99.90;;;;;;5037307;28;20855;-80
2023/06/07 05:42:17;;;;;;;17.13;10.07;;;18.80;99.90;;;;;;5039688;28;20505;-80
2023/06/07 05:44:45;;;;;;;14.60;10.00;;;18.80;99.90;;;;;;5038678;28;20988;-80
2023/06/07 05:47:11;;;;;;;15.13;9.17;;;18.80;99.90;;;;;;5039547;28;20197;-80
2023/06/07 05:49:37;;;;;;;13.93;10.43;;;18.80;99.90;;;;;;5040631;28;20517;-80
2023/06/07 05:52:03;;;;;;;14.43;8.93;;;18.80;99.90;;;;;;5039828;28;20533;-80
2023/06/07 05:54:28;;;;;;;16.37;9.80;;;18.80;99.90;;;;;;5038461;28;20186;-79
2023/06/07 05:56:54;;;;;;;16.57;9.80;;;18.90;99.90;;;;;;5039168;28;20243;-80
2023/06/07 05:59:19;;;;;;;15.77;10.93;;;18.90;99.90;;;;;;5038518;28;20258;-80
2023/06/07 06:01:48;;;;;;;15.30;10.90;;;19.00;99.90;;;;;;5038552;28;20728;-80
2023/06/07 06:04:15;;;;;;;14.40;9.93;;;19.20;99.90;;;;;;5039310;28;20183;-82
2023/06/07 06:06:41;;;;;;;14.93;9.83;;;19.30;99.90;;;;;;5040989;28;20523;-79
2023/06/07 06:09:07;;;;;;;15.70;9.53;;;19.70;99.90;;;;;;5040023;28;20795;-81
2023/06/07 06:11:32;;;;;;;16.80;9.20;;;20.30;99.90;;;;;;5040789;28;20454;-81
2023/06/07 06:13:58;;;;;;;14.33;9.50;;;20.80;99.90;;;;;;5039512;28;20218;-81
2023/06/07 06:16:23;;;;;;;11.77;9.57;;;21.10;99.90;;;;;;5039098;28;20229;-79
2023/06/07 06:18:49;;;;;;;15.80;11.17;;;21.20;99.90;;;;;;5040360;28;20197;-80
2023/06/07 06:21:14;;;;;;;15.10;10.70;;;21.20;99.90;;;;;;5039835;28;20179;-81
2023/06/07 06:23:40;;;;;;;18.13;10.47;;;21.20;99.90;;;;;;5033319;28;20224;-81
2023/06/07 06:26:05;;;;;;;19.17;10.13;;;21.20;99.90;;;;;;5033103;28;20196;-82
2023/06/07 06:28:31;;;;;;;15.13;10.00;;;21.20;99.90;;;;;;5038609;28;20205;-81
2023/06/07 06:30:57;;;;;;;15.97;10.40;;;21.30;99.90;;;;;;5035250;28;20183;-81
2023/06/07 06:33:22;;;;;;;16.53;9.80;;;21.30;99.90;;;;;;5039272;28;20186;-81
2023/06/07 06:35:48;;;;;;;17.77;11.97;;;21.40;99.90;;;;;;5040952;28;20298;-81
2023/06/07 06:38:13;;;;;;;14.63;10.40;;;21.40;99.90;;;;;;5004801;28;1063987;-81
2023/06/07 06:40:39;;;;;;;14.93;10.70;;;21.40;99.90;;;;;;5040771;28;20193;-81
2023/06/07 06:43:05;;;;;;;16.33;10.70;;;21.40;99.90;;;;;;5044227;28;20198;-79
2023/06/07 06:45:31;;;;;;;15.20;10.57;;;21.50;99.90;;;;;;5043191;28;20453;-79
2023/06/07 06:47:58;;;;;;;15.50;10.63;;;21.60;99.90;;;;;;5039602;28;20202;-81
2023/06/07 06:50:24;;;;;;;15.50;9.63;;;21.70;99.90;;;;;;5043558;28;20191;-81
2023/06/07 06:52:49;;;;;;;17.90;10.87;;;21.80;99.90;;;;;;5040232;28;20457;-82
2023/06/07 06:55:16;;;;;;;12.37;9.60;;;22.00;99.90;;;;;;5041360;28;20234;-82
2023/06/07 06:57:41;;;;;;;15.40;11.40;;;22.20;99.90;;;;;;5042418;28;20513;-81
2023/06/07 07:00:10;;;;;;;15.37;11.17;;;22.20;99.90;;;;;;5041818;28;20878;-81
2023/06/07 07:02:38;;;;;;;16.90;10.10;;;22.20;99.90;;;;;;5045633;28;20270;-82
2023/06/07 07:05:05;;;;;;;19.73;11.63;;;22.30;99.90;;;;;;5032802;28;20438;-82
2023/06/07 07:07:31;;;;;;;17.57;10.40;;;22.30;99.90;;;;;;5045890;28;20540;-80
2023/06/07 07:09:57;;;;;;;19.83;11.40;;;22.20;99.90;;;;;;5044151;28;20504;-80
2023/06/07 07:12:23;;;;;;;21.77;10.57;;;22.20;99.90;;;;;;5043060;28;20442;-80
2023/06/07 07:14:49;;;;;;;13.60;10.40;;;22.10;99.90;;;;;;5043164;28;20435;-79
2023/06/07 07:17:15;;;;;;;19.23;10.40;;;22.10;99.90;;;;;;5043139;28;20864;-81
2023/06/07 07:19:41;;;;;;;19.70;10.80;;;22.00;99.90;;;;;;5039851;28;20450;-79
2023/06/07 07:22:06;;;;;;;20.47;11.60;;;22.00;99.90;;;;;;5049868;28;20449;-80
2023/06/07 07:24:32;;;;;;;16.07;10.77;;;21.90;99.90;;;;;;5042942;28;20270;-80
2023/06/07 07:26:57;;;;;;;18.23;10.27;;;21.90;99.90;;;;;;5042945;28;20223;-80
2023/06/07 07:29:23;;;;;;;24.57;11.30;;;21.80;99.90;;;;;;5044128;28;20246;-81
2023/06/07 07:31:48;;;;;;;15.20;10.97;;;21.80;99.90;;;;;;5035908;28;20272;-79
2023/06/07 07:34:14;;;;;;;16.40;10.80;;;21.70;99.90;;;;;;5059715;28;20187;-81
2023/06/07 07:36:40;;;;;;;16.23;10.90;;;21.70;99.90;;;;;;5043574;28;20242;-82
2023/06/07 07:39:05;;;;;;;18.77;10.63;;;21.70;99.90;;;;;;5041764;28;20195;-82
2023/06/07 07:41:32;;;;;;;22.70;11.90;;;21.60;99.90;;;;;;5042395;28;20191;-81
2023/06/07 07:43:58;;;;;;;16.20;12.00;;;21.60;99.90;;;;;;5041540;28;20221;-82
2023/06/07 07:46:23;;;;;;;16.87;12.50;;;21.70;99.90;;;;;;5034077;28;20429;-81
2023/06/07 07:48:49;;;;;;;19.43;12.00;;;21.80;99.90;;;;;;5038888;28;20453;-82
2023/06/07 07:51:15;;;;;;;15.83;11.40;;;21.90;99.90;;;;;;5040961;28;20220;-81
2023/06/07 07:53:44;;;;;;;18.30;10.97;;;22.10;99.90;;;;;;5044742;28;20183;-82
2023/06/07 07:56:09;;;;;;;16.17;11.40;;;22.30;99.90;;;;;;5044070;28;20523;-81
2023/06/07 07:58:36;;;;;;;16.70;11.80;;;22.40;99.90;;;;;;5043367;28;20501;-82
2023/06/07 08:01:02;;;;;;;19.90;11.43;;;22.60;99.90;;;;;;5040484;28;20205;-81
2023/06/07 08:03:28;;;;;;;19.93;11.80;;;22.80;99.90;;;;;;5038048;28;20433;-82
2023/06/07 08:05:59;;;;;;;23.97;11.43;;;23.00;99.90;;;;;;5043767;28;20455;-83
2023/06/07 08:08:25;;;;;;;15.20;11.37;;;23.20;99.90;;;;;;5045600;28;20456;-83
2023/06/07 08:10:53;;;;;;;22.73;12.00;;;23.40;99.90;;;;;;5044811;28;20438;-82
2023/06/07 08:13:18;;;;;;;18.03;11.90;;;23.50;99.90;;;;;;5042927;28;20201;-82
2023/06/07 08:15:46;;;;;;;15.47;11.07;;;23.60;99.90;;;;;;5038150;28;20470;-83
2023/06/07 08:18:11;;;;;;;16.13;11.93;;;23.60;99.90;;;;;;5044411;28;20202;-80
2023/06/07 08:20:37;;;;;;;19.90;11.60;;;23.60;99.90;;;;;;5041932;28;20497;-80
2023/06/07 08:23:06;;;;;;;15.40;11.53;;;23.70;99.90;;;;;;5043866;28;20257;-82
2023/06/07 08:25:32;;;;;;;15.67;12.77;;;23.60;99.90;;;;;;5043096;28;20194;-82
2023/06/07 08:27:58;;;;;;;18.43;12.90;;;23.60;99.90;;;;;;5044622;28;20483;-82
2023/06/07 08:30:24;;;;;;;20.60;13.20;;;23.60;99.90;;;;;;5042600;28;20459;-82
2023/06/07 08:32:50;;;;;;;13.23;11.20;;;23.50;99.90;;;;;;5032832;28;20244;-82
2023/06/07 08:35:15;;;;;;;14.40;11.63;;;23.40;99.90;;;;;;5042625;28;20209;-81
2023/06/07 08:37:41;;;;;;;20.10;12.70;;;23.30;99.90;;;;;;5042671;28;20537;-81
2023/06/07 08:40:08;;;;;;;20.77;12.20;;;23.10;99.90;;;;;;5047093;28;20212;-82
2023/06/07 08:42:34;;;;;;;16.97;11.30;;;23.00;99.90;;;;;;5043351;28;20196;-82
2023/06/07 08:45:00;;;;;;;17.03;12.00;;;23.00;99.90;;;;;;5042361;28;20440;-79
2023/06/07 08:47:28;;;;;;;20.03;12.60;;;23.00;99.90;;;;;;5032515;28;20467;-82
2023/06/07 08:49:57;;;;;;;20.00;13.03;;;23.00;99.90;;;;;;5042591;28;22673;-83
2023/06/07 08:52:24;;;;;;;19.20;12.00;;;22.90;99.90;;;;;;5041518;28;20443;-80
2023/06/07 08:54:52;;;;;;;19.33;12.03;;;22.80;99.90;;;;;;5041222;28;20430;-82
2023/06/07 08:57:18;;;;;;;18.23;13.27;;;22.70;99.90;;;;;;5041252;28;20463;-81
2023/06/07 08:59:45;;;;;;;21.30;12.37;;;22.60;99.90;;;;;;5035357;28;20435;-81
2023/06/07 09:02:15;;;;;;;18.00;13.70;;;22.60;99.90;;;;;;5039736;28;20538;-82
2023/06/07 09:04:41;;;;;;;16.80;12.40;;;22.60;99.90;;;;;;5044355;28;20447;-82
2023/06/07 09:07:10;;;;;;;24.93;13.17;;;22.70;99.90;;;;;;5046043;28;20462;-81
2023/06/07 09:09:36;;;;;;;17.53;12.53;;;22.70;99.90;;;;;;5048548;28;20435;-82
2023/06/07 09:12:02;;;;;;;17.57;12.50;;;22.70;99.90;;;;;;5045521;28;20443;-83
2023/06/07 09:14:31;;;;;;;21.60;12.77;;;22.80;99.90;;;;;;5045918;28;20513;-82
2023/06/07 09:16:58;;;;;;;20.33;11.87;;;22.90;99.90;;;;;;5042863;28;20578;-82
2023/06/07 09:19:34;;;;;;;19.67;12.10;;;23.00;99.90;;;;;;5065080;28;20435;-82
2023/06/07 09:22:01;;;;;;;18.30;12.40;;;23.20;99.90;;;;;;5042880;28;20464;-80
2023/06/07 09:24:28;;;;;;;15.77;11.40;;;23.40;99.90;;;;;;5045834;28;20436;-82
2023/06/07 09:26:54;;;;;;;18.13;12.80;;;23.60;99.90;;;;;;5046537;28;20468;-82
2023/06/07 09:29:19;;;;;;;16.50;11.60;;;23.80;99.60;;;;;;5050154;28;20433;-81
2023/06/07 09:31:45;;;;;;;16.90;12.33;;;24.00;98.10;;;;;;5047028;28;20196;-82
2023/06/07 09:34:26;;;;;;;17.87;11.13;;;24.00;97.10;;;;;;5044144;28;20191;-81
2023/06/07 09:36:54;;;;;;;17.30;12.70;;;24.10;96.10;;;;;;5041964;28;20215;-82
2023/06/07 09:39:22;;;;;;;17.13;12.03;;;24.10;95.90;;;;;;5046088;28;20461;-82
2023/06/07 09:41:48;;;;;;;18.90;12.60;;;24.10;94.50;;;;;;5040597;28;20962;-83
2023/06/07 09:44:28;;;;;;;21.50;11.40;;;24.00;93.60;;;;;;5046521;28;20460;-82
2023/06/07 09:46:54;;;;;;;18.07;11.10;;;24.00;93.30;;;;;;5058772;28;20476;-80
2023/06/07 09:49:28;;;;;;;20.87;12.20;;;23.90;92.90;;;;;;5046503;28;20539;-80
2023/06/07 09:51:54;;;;;;;14.23;10.90;;;23.80;91.80;;;;;;5040920;28;20449;-82
2023/06/07 09:54:36;;;;;;;18.87;12.50;;;23.70;91.80;;;;;;5047506;28;20523;-82
2023/06/07 09:57:21;;;;;;;29.47;12.23;;;23.60;91.50;;;;;;5044755;28;20477;-82
2023/06/07 10:00:14;;;;;;;15.90;11.93;;;23.50;91.10;;;;;;5040762;28;20585;-80
2023/06/07 10:02:44;;;;;;;18.07;11.93;;;23.40;91.40;;;;;;5044815;28;20511;-82
2023/06/07 10:05:15;;;;;;;19.60;11.20;;;23.30;91.50;;;;;;5044833;28;20440;-82
2023/06/07 10:07:49;;;;;;;18.63;12.47;;;23.20;92.00;;;;;;5039299;28;20524;-81
2023/06/07 10:10:18;;;;;;;17.73;12.20;;;23.20;92.50;;;;;;5046994;28;21041;-82
2023/06/07 10:12:45;;;;;;;15.93;12.90;;;23.10;92.30;;;;;;5045559;28;20436;-80
2023/06/07 10:15:23;;;;;;;18.93;12.43;;;23.00;93.00;;;;;;5033222;28;20531;-81
2023/06/07 10:17:55;;;;;;;17.10;12.40;;;22.90;92.40;;;;;;5043729;28;20459;-82
2023/06/07 10:20:28;;;;;;;17.30;12.70;;;22.80;92.80;;;;;;5044679;28;20456;-82
2023/06/07 10:23:02;;;;;;;23.43;13.30;;;22.60;93.10;;;;;;5046308;28;20563;-82
2023/06/07 10:25:32;;;;;;;19.03;13.10;;;22.50;94.10;;;;;;5044613;28;20434;-82
2023/06/07 10:28:16;;;;;;;22.97;13.20;;;22.50;95.00;;;;;;5045788;28;20478;-81
2023/06/07 10:30:48;;;;;;;20.87;13.47;;;22.40;95.80;;;;;;5043349;28;20439;-82
2023/06/07 10:33:15;;;;;;;21.30;12.83;;;22.30;96.10;;;;;;5040003;28;20442;-82
2023/06/07 10:35:40;;;;;;;21.73;13.30;;;22.30;97.20;;;;;;5040075;28;20863;-81
2023/06/07 10:38:10;;;;;;;22.70;13.60;;;22.20;98.30;;;;;;5043986;28;20492;-82
2023/06/07 10:40:36;;;;;;;22.63;12.80;;;22.20;99.70;;;;;;5044789;28;20182;-82
2023/06/07 10:43:03;;;;;;;23.40;14.63;;;22.10;99.90;;;;;;5039232;28;20449;-78
2023/06/07 10:45:28;;;;;;;25.53;14.10;;;22.00;99.90;;;;;;5034283;28;20445;-79
2023/06/07 10:47:54;;;;;;;21.10;13.20;;;21.80;99.90;;;;;;5037455;28;21063;-79
2023/06/07 10:50:47;;;;;;;17.60;13.73;;;21.70;99.90;;;;;;5036368;28;20184;-79
2023/06/07 10:53:12;;;;;;;18.20;13.30;;;21.60;99.90;;;;;;5030530;28;20441;-79
2023/06/07 10:55:38;;;;;;;19.53;14.83;;;21.50;99.90;;;;;;5036570;28;21009;-79
2023/06/07 10:58:27;;;;;;;19.07;13.83;;;21.50;99.90;;;;;;5035492;28;20752;-80
2023/06/07 11:00:54;;;;;;;22.30;15.03;;;21.50;99.90;;;;;;5035960;28;20191;-80
2023/06/07 11:03:23;;;;;;;19.53;14.23;;;21.60;99.90;;;;;;5036456;28;20449;-79
2023/06/07 11:06:06;;;;;;;21.90;14.33;;;21.70;99.90;;;;;;5036115;28;20477;-80
2023/06/07 11:08:33;;;;;;;19.57;14.43;;;21.80;99.90;;;;;;5033957;28;20545;-79
2023/06/07 11:11:01;;;;;;;22.20;14.93;;;21.80;99.90;;;;;;5037247;28;20447;-79
2023/06/07 11:13:52;;;;;;;21.00;14.30;;;21.90;99.90;;;;;;5034381;28;20438;-79
2023/06/07 11:16:24;;;;;;;19.07;12.43;;;22.10;99.90;;;;;;5025248;28;20474;-80
2023/06/07 11:18:55;;;;;;;15.93;13.13;;;22.20;99.90;;;;;;5036028;28;20597;-80
2023/06/07 11:21:20;;;;;;;22.00;13.87;;;22.10;99.90;;;;;;5035962;28;20492;-79
2023/06/07 11:24:06;;;;;;;23.03;15.40;;;22.10;99.90;;;;;;5035996;28;20530;-79
2023/06/07 11:26:35;;;;;;;19.47;13.80;;;22.20;99.90;;;;;;5032211;28;20584;-78
2023/06/07 11:29:01;;;;;;;17.13;13.60;;;22.20;99.90;;;;;;5036694;28;20818;-79
2023/06/07 11:31:26;;;;;;;22.00;13.63;;;22.30;99.90;;;;;;5035878;28;20436;-79
2023/06/07 11:33:52;;;;;;;24.43;13.93;;;22.50;99.90;;;;;;5034983;28;20461;-79
2023/06/07 11:36:18;;;;;;;18.60;13.67;;;22.60;99.90;;;;;;5035466;28;20216;-79
2023/06/07 11:38:48;;;;;;;21.43;14.47;;;22.70;99.90;;;;;;5035210;28;20870;-79
2023/06/07 11:41:14;;;;;;;19.43;13.20;;;22.90;99.90;;;;;;5036692;28;20220;-79
2023/06/07 11:43:40;;;;;;;23.10;13.67;;;23.00;99.90;;;;;;5030759;28;20441;-78
2023/06/07 11:46:06;;;;;;;21.80;14.27;;;23.20;99.90;;;;;;5035475;28;20447;-79
2023/06/07 11:48:32;;;;;;;17.80;14.60;;;23.40;99.90;;;;;;5036319;28;20460;-77
2023/06/07 11:50:59;;;;;;;16.37;13.30;;;23.60;99.90;;;;;;5034675;28;20188;-79
2023/06/07 11:53:28;;;;;;;18.97;13.77;;;23.70;99.90;;;;;;5036278;28;20795;-79
2023/06/07 11:55:55;;;;;;;21.20;14.10;;;23.90;99.90;;;;;;5036227;28;20470;-79
2023/06/07 11:58:22;;;;;;;18.27;15.00;;;24.20;99.90;;;;;;5035372;28;20470;-79
2023/06/07 12:00:49;;;;;;;18.20;13.83;;;24.50;99.90;;;;;;5034491;28;20947;-83
2023/06/07 12:03:20;;;;;;;20.70;14.20;;;24.70;99.90;;;;;;5039540;28;20470;-79
2023/06/07 12:05:47;;;;;;;18.30;15.10;;;25.00;99.90;;;;;;5032758;28;20449;-80
2023/06/07 12:08:15;;;;;;;17.93;14.00;;;25.30;99.90;;;;;;5035922;28;20448;-79
2023/06/07 12:10:41;;;;;;;19.40;13.87;;;25.80;99.90;;;;;;5037121;28;20928;-79
2023/06/07 12:13:13;;;;;;;14.60;12.83;;;26.10;99.90;;;;;;5035573;28;20440;-79
2023/06/07 12:15:46;;;;;;;19.27;14.37;;;26.50;99.90;;;;;;5035662;28;20488;-79
2023/06/07 12:18:18;;;;;;;16.53;12.87;;;27.80;99.90;;;;;;5033835;28;20523;-80
2023/06/07 12:20:45;;;;;;;18.23;11.90;;;29.00;99.90;;;;;;5047237;28;20445;-82
2023/06/07 12:23:12;;;;;;;14.03;12.07;;;29.90;97.30;;;;;;5041914;28;20437;-83
2023/06/07 12:25:41;;;;;;;14.60;11.70;;;30.50;94.60;;;;;;5045801;28;20439;-83
2023/06/07 12:28:11;;;;;;;18.93;13.00;;;30.60;90.80;;;;;;5044362;28;20441;-82
2023/06/07 12:30:40;;;;;;;17.03;13.80;;;30.40;84.10;;;;;;5045121;28;20458;-83
2023/06/07 12:33:15;;;;;;;15.53;11.77;;;30.60;79.80;;;;;;5045753;28;20436;-82